Time;durP1;ratioP1;P1;durP2;ratioP2;P2;SDS_P1;SDS_P2;PMS_P1;PMS_P2;Temp;Humidity;BMP_temperature;BMP_pressure;BME280_temperature;BME280_humidity;BME280_pressure;Samples;Min_cycle;Max_cycle;Signal;HPM_P1;HPM_P2
2022/04/27 00:01:00;;;;;;;8.17;5.70;;;;;;;;;;5055881;28;20546;-65
2022/04/27 00:03:26;;;;;;;7.30;5.90;;;;;;;;;;5055115;28;20209;-65
2022/04/27 00:05:52;;;;;;;9.23;5.80;;;;;;;;;;5037392;28;20269;-65
2022/04/27 00:08:18;;;;;;;7.43;5.63;;;;;;;;;;5055299;28;20248;-65
2022/04/27 00:10:44;;;;;;;9.80;6.17;;;;;;;;;;5055228;28;20210;-65
2022/04/27 00:13:16;;;;;;;7.90;5.50;;;;;;;;;;5055483;28;20183;-65
2022/04/27 00:15:42;;;;;;;10.43;5.93;;;;;;;;;;5055039;28;20202;-65
2022/04/27 00:18:08;;;;;;;9.50;4.63;;;;;;;;;;5037266;28;20212;-65
2022/04/27 00:20:34;;;;;;;8.87;5.90;;;;;;;;;;5054996;28;20183;-65
2022/04/27 00:23:00;;;;;;;7.33;5.57;;;;;;;;;;5037049;28;20634;-65
2022/04/27 00:25:26;;;;;;;10.63;5.00;;;;;;;;;;5054913;28;20554;-65
2022/04/27 00:27:52;;;;;;;6.57;5.30;;;;;;;;;;5054896;28;20178;-65
2022/04/27 00:30:18;;;;;;;9.80;5.57;;;;;;;;;;5056669;28;20542;-65
2022/04/27 00:32:44;;;;;;;8.67;5.77;;;;;;;;;;5056971;28;20254;-66
2022/04/27 00:35:10;;;;;;;6.87;5.47;;;;;;;;;;5057780;28;20198;-66
2022/04/27 00:37:36;;;;;;;8.37;5.83;;;;;;;;;;5057110;28;20178;-66
2022/04/27 00:40:03;;;;;;;7.47;5.63;;;;;;;;;;5055527;28;20174;-66
2022/04/27 00:42:29;;;;;;;7.70;5.80;;;;;;;;;;5037710;28;20200;-66
2022/04/27 00:44:54;;;;;;;8.37;4.93;;;;;;;;;;5036958;28;20213;-66
2022/04/27 00:47:20;;;;;;;10.47;5.23;;;;;;;;;;5054160;28;20175;-66
2022/04/27 00:49:48;;;;;;;6.27;4.53;;;;;;;;;;5036487;28;20187;-66
2022/04/27 00:52:15;;;;;;;8.00;4.30;;;;;;;;;;5054351;28;20174;-66
2022/04/27 00:54:42;;;;;;;5.63;4.47;;;;;;;;;;5054463;28;20592;-66
2022/04/27 00:57:08;;;;;;;11.33;4.63;;;;;;;;;;5036398;28;20178;-66
2022/04/27 00:59:34;;;;;;;5.87;4.83;;;;;;;;;;5054307;28;20232;-66
2022/04/27 01:02:01;;;;;;;6.90;4.13;;;;;;;;;;5054417;28;20630;-66
2022/04/27 01:04:27;;;;;;;7.47;4.67;;;;;;;;;;5054093;28;20274;-66
2022/04/27 01:06:53;;;;;;;7.37;4.53;;;;;;;;;;5054365;28;20177;-66
2022/04/27 01:09:19;;;;;;;8.77;4.67;;;;;;;;;;5036210;28;20182;-66
2022/04/27 01:11:45;;;;;;;7.63;5.20;;;;;;;;;;5036261;28;20604;-66
2022/04/27 01:14:11;;;;;;;5.50;4.37;;;;;;;;;;5053885;28;20194;-66
2022/04/27 01:16:37;;;;;;;7.30;4.73;;;;;;;;;;5054154;28;20186;-66
2022/04/27 01:19:05;;;;;;;6.90;4.53;;;;;;;;;;5053902;28;20178;-66
2022/04/27 01:21:31;;;;;;;6.63;4.57;;;;;;;;;;5036127;28;20194;-66
2022/04/27 01:23:57;;;;;;;5.80;4.50;;;;;;;;;;5054091;28;20612;-66
2022/04/27 01:26:22;;;;;;;6.13;5.00;;;;;;;;;;5053752;28;20171;-66
2022/04/27 01:28:48;;;;;;;8.70;5.87;;;;;;;;;;5035958;28;20569;-66
2022/04/27 01:31:14;;;;;;;8.67;5.73;;;;;;;;;;5053636;28;20185;-66
2022/04/27 01:33:41;;;;;;;8.60;6.40;;;;;;;;;;5053549;28;20205;-66
2022/04/27 01:36:13;;;;;;;8.07;6.30;;;;;;;;;;5054111;28;20187;-66
2022/04/27 01:38:42;;;;;;;7.70;6.60;;;;;;;;;;5053716;28;20163;-66
2022/04/27 01:41:09;;;;;;;9.23;6.60;;;;;;;;;;5053489;28;20262;-66
2022/04/27 01:43:35;;;;;;;6.80;5.93;;;;;;;;;;5035515;28;20216;-66
2022/04/27 01:46:01;;;;;;;8.07;5.97;;;;;;;;;;5053663;28;20186;-66
2022/04/27 01:48:27;;;;;;;6.83;6.20;;;;;;;;;;5053565;28;20546;-66
2022/04/27 01:50:54;;;;;;;9.17;7.00;;;;;;;;;;5035510;28;20175;-66
2022/04/27 01:56:05;;;;;;;8.83;6.90;;;;;;;;;;5053817;28;20239;-66
2022/04/27 01:58:31;;;;;;;7.97;7.07;;;;;;;;;;5035197;28;20189;-66
2022/04/27 02:00:57;;;;;;;8.87;6.77;;;;;;;;;;5053704;28;20690;-66
2022/04/27 02:03:23;;;;;;;9.50;7.00;;;;;;;;;;5053716;28;20209;-65
2022/04/27 02:05:50;;;;;;;9.00;7.57;;;;;;;;;;5053402;28;20171;-66
2022/04/27 02:08:16;;;;;;;9.93;7.60;;;;;;;;;;5053370;28;20257;-66
2022/04/27 02:10:42;;;;;;;12.97;7.97;;;;;;;;;;5035467;28;20174;-66
2022/04/27 02:13:09;;;;;;;11.07;8.17;;;;;;;;;;5053142;28;20257;-66
2022/04/27 02:15:35;;;;;;;9.23;7.30;;;;;;;;;;5035224;28;20206;-66
2022/04/27 02:18:02;;;;;;;13.80;7.77;;;;;;;;;;5035309;28;20546;-66
2022/04/27 02:20:28;;;;;;;10.37;7.87;;;;;;;;;;5035160;28;20646;-66
2022/04/27 02:22:54;;;;;;;9.20;7.17;;;;;;;;;;5035058;28;20205;-66
2022/04/27 02:25:20;;;;;;;13.30;6.73;;;;;;;;;;5035042;28;20666;-66
2022/04/27 02:27:48;;;;;;;11.23;7.43;;;;;;;;;;5053007;28;20608;-66
2022/04/27 02:30:14;;;;;;;10.60;7.30;;;;;;;;;;5035204;28;20170;-66
2022/04/27 02:32:40;;;;;;;9.77;7.03;;;;;;;;;;5053240;28;20178;-66
2022/04/27 02:35:06;;;;;;;13.47;7.40;;;;;;;;;;5035083;28;20199;-66
2022/04/27 02:37:33;;;;;;;10.00;7.57;;;;;;;;;;5053503;28;20205;-66
2022/04/27 02:40:00;;;;;;;17.07;8.43;;;;;;;;;;5034905;28;20182;-66
2022/04/27 02:42:26;;;;;;;10.43;7.83;;;;;;;;;;5035037;28;20178;-66
2022/04/27 02:44:52;;;;;;;11.63;7.33;;;;;;;;;;5053184;28;20210;-66
2022/04/27 02:47:19;;;;;;;15.07;7.80;;;;;;;;;;5052974;28;20634;-66
2022/04/27 02:52:29;;;;;;;9.90;7.40;;;;;;;;;;5053162;28;20241;-66
2022/04/27 02:54:55;;;;;;;8.80;7.07;;;;;;;;;;5052732;28;20752;-66
2022/04/27 02:57:21;;;;;;;12.27;7.43;;;;;;;;;;5052673;28;20643;-66
2022/04/27 02:59:48;;;;;;;9.17;7.07;;;;;;;;;;5052923;28;20182;-66
2022/04/27 03:02:14;;;;;;;11.10;6.67;;;;;;;;;;5034783;28;20646;-66
2022/04/27 03:04:40;;;;;;;8.13;6.57;;;;;;;;;;5053094;28;20210;-66
2022/04/27 03:07:06;;;;;;;9.30;6.13;;;;;;;;;;5034766;28;20182;-66
2022/04/27 03:09:32;;;;;;;9.13;5.50;;;;;;;;;;5053264;28;20170;-66
2022/04/27 03:11:58;;;;;;;7.63;5.83;;;;;;;;;;5056810;28;20244;-66
2022/04/27 03:14:24;;;;;;;10.17;5.80;;;;;;;;;;5038409;28;20662;-66
2022/04/27 03:16:52;;;;;;;7.50;5.80;;;;;;;;;;5056291;28;20179;-67
2022/04/27 03:19:18;;;;;;;7.73;6.20;;;;;;;;;;5038273;28;20182;-66
2022/04/27 03:21:44;;;;;;;8.47;6.20;;;;;;;;;;5056075;28;20186;-66
2022/04/27 03:24:10;;;;;;;7.77;6.73;;;;;;;;;;5056029;28;20214;-66
2022/04/27 03:26:36;;;;;;;6.67;6.00;;;;;;;;;;5056108;28;20174;-66
2022/04/27 03:29:03;;;;;;;7.87;6.03;;;;;;;;;;5038274;28;20185;-66
2022/04/27 03:31:29;;;;;;;9.17;5.70;;;;;;;;;;5055915;28;20194;-66
2022/04/27 03:33:56;;;;;;;9.23;5.93;;;;;;;;;;5037860;28;20202;-66
2022/04/27 03:36:22;;;;;;;7.87;6.23;;;;;;;;;;5037867;28;20193;-66
2022/04/27 03:38:50;;;;;;;9.30;6.17;;;;;;;;;;5056078;28;20224;-66
2022/04/27 03:41:19;;;;;;;9.67;6.20;;;;;;;;;;5055861;28;20252;-66
2022/04/27 03:43:45;;;;;;;10.10;6.73;;;;;;;;;;5055703;28;20649;-66
2022/04/27 03:46:11;;;;;;;8.47;6.40;;;;;;;;;;5056178;28;20579;-66
2022/04/27 03:48:37;;;;;;;8.10;6.93;;;;;;;;;;5037768;28;20568;-66
2022/04/27 03:51:04;;;;;;;11.70;6.73;;;;;;;;;;5037740;28;20209;-66
2022/04/27 03:53:30;;;;;;;8.67;6.77;;;;;;;;;;5055330;28;20183;-66
2022/04/27 03:55:56;;;;;;;10.17;6.70;;;;;;;;;;5037669;28;20724;-66
2022/04/27 03:58:22;;;;;;;9.50;7.10;;;;;;;;;;5037519;28;20213;-66
2022/04/27 04:00:48;;;;;;;9.20;6.47;;;;;;;;;;5055853;28;20182;-66
2022/04/27 04:03:14;;;;;;;8.40;6.53;;;;;;;;;;5055363;28;20251;-66
2022/04/27 04:05:41;;;;;;;9.77;6.87;;;;;;;;;;5055246;28;20549;-66
2022/04/27 04:08:07;;;;;;;10.00;6.80;;;;;;;;;;5037613;28;20187;-66
2022/04/27 04:10:33;;;;;;;8.87;6.97;;;;;;;;;;5037606;28;20227;-66
2022/04/27 04:12:59;;;;;;;9.93;7.20;;;;;;;;;;5037303;28;20179;-66
2022/04/27 04:15:25;;;;;;;11.07;6.70;;;;;;;;;;5037211;28;20198;-66
2022/04/27 04:17:51;;;;;;;12.30;6.90;;;;;;;;;;5037319;28;20182;-66
2022/04/27 04:20:17;;;;;;;11.27;7.80;;;;;;;;;;5055369;28;20730;-66
2022/04/27 04:22:44;;;;;;;10.70;7.87;;;;;;;;;;5054526;28;20526;-66
2022/04/27 04:30:40;;;;;;;13.70;8.67;;;;;;;;;;5056507;28;20193;-66
2022/04/27 04:33:06;;;;;;;9.47;7.67;;;;;;;;;;5037542;28;20182;-66
2022/04/27 04:35:32;;;;;;;11.27;7.23;;;;;;;;;;5055607;28;20194;-66
2022/04/27 04:37:58;;;;;;;9.53;7.63;;;;;;;;;;5055371;28;20276;-66
2022/04/27 04:40:24;;;;;;;9.57;7.90;;;;;;;;;;5055196;28;20178;-66
2022/04/27 04:42:50;;;;;;;11.73;7.47;;;;;;;;;;5054840;28;20250;-66
2022/04/27 04:45:16;;;;;;;9.73;7.73;;;;;;;;;;5036877;28;20202;-67
2022/04/27 04:47:42;;;;;;;8.67;7.77;;;;;;;;;;5054839;28;20181;-66
2022/04/27 04:50:08;;;;;;;10.10;7.90;;;;;;;;;;5079785;22;20258;-68
2022/04/27 04:52:35;;;;;;;10.30;7.77;;;;;;;;;;5054526;28;20175;-69
2022/04/27 04:55:00;;;;;;;10.93;7.50;;;;;;;;;;5037175;28;20184;-68
2022/04/27 04:57:26;;;;;;;12.53;8.63;;;;;;;;;;5054411;28;20642;-70
2022/04/27 04:59:53;;;;;;;8.97;7.60;;;;;;;;;;5036511;28;20206;-69
2022/04/27 05:02:19;;;;;;;10.57;8.00;;;;;;;;;;5054989;28;20262;-67
2022/04/27 05:04:45;;;;;;;13.50;8.53;;;;;;;;;;5054521;28;20205;-68
2022/04/27 05:07:11;;;;;;;10.10;7.87;;;;;;;;;;5054667;28;20171;-68
2022/04/27 05:09:37;;;;;;;10.73;8.27;;;;;;;;;;5054344;28;20197;-69
2022/04/27 05:12:04;;;;;;;13.97;8.33;;;;;;;;;;5036329;28;20182;-68
2022/04/27 05:14:30;;;;;;;13.70;8.17;;;;;;;;;;5053980;28;20179;-68
2022/04/27 05:16:56;;;;;;;11.67;8.93;;;;;;;;;;5036255;28;20182;-70
2022/04/27 05:19:22;;;;;;;12.23;8.57;;;;;;;;;;5053898;28;20202;-69
2022/04/27 05:21:49;;;;;;;15.30;8.37;;;;;;;;;;5036186;28;20273;-67
2022/04/27 05:24:15;;;;;;;12.60;7.70;;;;;;;;;;5054590;28;20198;-68
2022/04/27 05:26:41;;;;;;;12.60;8.10;;;;;;;;;;5054687;28;20178;-70
2022/04/27 05:31:54;;;;;;;14.43;8.40;;;;;;;;;;5054332;28;20637;-68
2022/04/27 05:34:24;;;;;;;13.30;8.00;;;;;;;;;;5053011;28;20233;-68
2022/04/27 05:36:50;;;;;;;10.43;8.23;;;;;;;;;;5053814;28;20214;-68
2022/04/27 05:39:18;;;;;;;10.67;7.13;;;;;;;;;;5053566;28;20201;-68
2022/04/27 05:41:44;;;;;;;10.43;7.47;;;;;;;;;;5053580;28;20245;-68
2022/04/27 05:44:10;;;;;;;7.87;6.70;;;;;;;;;;5053868;28;20688;-69
2022/04/27 05:46:36;;;;;;;11.80;8.30;;;;;;;;;;5035688;28;20182;-68
2022/04/27 05:49:03;;;;;;;8.30;7.37;;;;;;;;;;5053623;28;20210;-68
2022/04/27 05:51:29;;;;;;;13.13;8.77;;;;;;;;;;5053807;28;20189;-68
2022/04/27 05:53:55;;;;;;;10.30;7.77;;;;;;;;;;5053676;28;20178;-68
2022/04/27 05:56:22;;;;;;;13.70;8.80;;;;;;;;;;5053601;28;20553;-68
2022/04/27 05:58:48;;;;;;;12.67;9.53;;;;;;;;;;5035588;28;20248;-68
2022/04/27 06:01:14;;;;;;;13.17;8.37;;;;;;;;;;5053466;28;20630;-67
2022/04/27 06:03:40;;;;;;;13.67;8.00;;;;;;;;;;5053353;28;20201;-68
2022/04/27 06:06:06;;;;;;;10.60;8.10;;;;;;;;;;5053637;28;20186;-67
2022/04/27 06:08:32;;;;;;;11.40;8.27;;;;;;;;;;5053878;28;20257;-68
2022/04/27 06:10:58;;;;;;;11.10;7.77;;;;;;;;;;5053322;28;20277;-67
2022/04/27 06:13:24;;;;;;;13.80;8.37;;;;;;;;;;5053725;28;20174;-66
2022/04/27 06:15:50;;;;;;;11.00;8.33;;;;;;;;;;5054328;28;20631;-68
2022/04/27 06:18:16;;;;;;;11.67;7.53;;;;;;;;;;5035563;28;20196;-68
2022/04/27 06:20:43;;;;;;;11.03;7.93;;;;;;;;;;5053547;28;20198;-67
2022/04/27 06:23:09;;;;;;;13.20;7.83;;;;;;;;;;5035397;28;20232;-68
2022/04/27 06:25:35;;;;;;;9.67;6.93;;;;;;;;;;5035261;28;20205;-69
2022/04/27 06:28:02;;;;;;;10.57;7.43;;;;;;;;;;5035223;28;20183;-69
2022/04/27 06:30:28;;;;;;;8.87;7.17;;;;;;;;;;5035170;28;20224;-68
2022/04/27 06:32:54;;;;;;;8.57;6.80;;;;;;;;;;5053399;28;20177;-67
2022/04/27 06:35:20;;;;;;;10.03;7.27;;;;;;;;;;5052959;28;20178;-68
2022/04/27 06:37:46;;;;;;;10.87;7.30;;;;;;;;;;5053292;28;20229;-68
2022/04/27 06:40:12;;;;;;;9.30;6.53;;;;;;;;;;5052887;28;20247;-68
2022/04/27 06:42:47;;;;;;;11.40;7.27;;;;;;;;;;5053308;28;20179;-67
2022/04/27 06:45:13;;;;;;;11.27;6.60;;;;;;;;;;5054817;28;20205;-68
2022/04/27 06:47:39;;;;;;;8.80;6.40;;;;;;;;;;5057113;28;20178;-68
2022/04/27 06:50:06;;;;;;;11.10;7.17;;;;;;;;;;5056827;28;20209;-68
2022/04/27 06:52:33;;;;;;;11.67;6.60;;;;;;;;;;5038976;28;20206;-68
2022/04/27 06:54:58;;;;;;;9.97;6.77;;;;;;;;;;5038810;28;20205;-66
2022/04/27 06:57:24;;;;;;;10.90;7.10;;;;;;;;;;5039094;28;20623;-67
2022/04/27 06:59:50;;;;;;;9.00;6.90;;;;;;;;;;5056767;28;20662;-69
2022/04/27 07:02:16;;;;;;;10.73;6.10;;;;;;;;;;5056787;28;20649;-68
2022/04/27 07:04:48;;;;;;;7.67;5.90;;;;;;;;;;5056666;28;20202;-68
2022/04/27 07:07:14;;;;;;;9.27;6.37;;;;;;;;;;5056707;28;20158;-68
2022/04/27 07:09:41;;;;;;;9.17;6.20;;;;;;;;;;5056838;28;20282;-66
2022/04/27 07:12:07;;;;;;;9.67;6.20;;;;;;;;;;5057236;28;20182;-66
2022/04/27 07:14:33;;;;;;;9.00;5.90;;;;;;;;;;5056761;28;20537;-66
2022/04/27 07:16:59;;;;;;;7.97;5.17;;;;;;;;;;5056701;28;20186;-66
2022/04/27 07:19:25;;;;;;;7.23;5.03;;;;;;;;;;5038603;28;20209;-66
2022/04/27 07:21:50;;;;;;;7.10;4.50;;;;;;;;;;5056997;28;20189;-66
2022/04/27 07:24:16;;;;;;;6.17;4.00;;;;;;;;;;5038557;28;20266;-66
2022/04/27 07:26:42;;;;;;;4.70;4.10;;;;;;;;;;5040444;28;20272;-66
2022/04/27 07:29:09;;;;;;;3.80;3.40;;;;;;;;;;5059612;28;20194;-66
2022/04/27 07:31:35;;;;;;;5.50;2.73;;;;;;;;;;5056271;28;20186;-66
2022/04/27 07:34:01;;;;;;;4.17;2.53;;;;;;;;;;5056218;28;20174;-66
2022/04/27 07:36:26;;;;;;;6.30;3.63;;;;;;;;;;5057856;28;20187;-67
2022/04/27 07:38:52;;;;;;;5.60;3.60;;;;;;;;;;5057412;28;20186;-66
2022/04/27 07:41:18;;;;;;;5.73;3.10;;;;;;;;;;5038941;28;20178;-66
2022/04/27 07:43:44;;;;;;;6.10;3.60;;;;;;;;;;5055963;28;20202;-66
2022/04/27 07:46:11;;;;;;;6.40;3.60;;;;;;;;;;5055956;28;20175;-67
2022/04/27 07:48:37;;;;;;;5.20;3.63;;;;;;;;;;5056081;28;20190;-67
2022/04/27 07:51:05;;;;;;;5.33;3.80;;;;;;;;;;5055869;28;20705;-67
2022/04/27 07:53:31;;;;;;;4.63;3.80;;;;;;;;;;5056086;28;20201;-67
2022/04/27 07:55:57;;;;;;;3.90;3.50;;;;;;;;;;5037711;28;20650;-64
2022/04/27 07:58:23;;;;;;;3.70;3.40;;;;;;;;;;5055452;28;20182;-65
2022/04/27 08:00:49;;;;;;;5.70;2.93;;;;;;;;;;5055646;28;20298;-65
2022/04/27 08:03:15;;;;;;;3.10;2.80;;;;;;;;;;5037744;28;20285;-65
2022/04/27 08:05:41;;;;;;;4.57;2.77;;;;;;;;;;5038109;28;20181;-66
2022/04/27 08:08:08;;;;;;;3.13;2.67;;;;;;;;;;5055529;28;20217;-64
2022/04/27 08:10:34;;;;;;;3.33;2.83;;;;;;;;;;5037315;28;20207;-66
2022/04/27 08:13:00;;;;;;;5.53;2.87;;;;;;;;;;5037679;28;20187;-66
2022/04/27 08:15:26;;;;;;;4.97;3.33;;;;;;;;;;5055720;28;20261;-66
2022/04/27 08:17:52;;;;;;;5.47;2.97;;;;;;;;;;5055501;28;20171;-65
2022/04/27 08:23:11;;;;;;;3.70;2.90;;;;;;;;;;5055735;28;20244;-66
2022/04/27 08:25:37;;;;;;;4.97;2.63;;;;;;;;;;5055098;28;20261;-66
2022/04/27 08:28:06;;;;;;;4.87;3.53;;;;;;;;;;5037224;28;20179;-66
2022/04/27 08:30:32;;;;;;;5.57;3.50;;;;;;;;;;5055119;28;20190;-66
2022/04/27 08:33:00;;;;;;;3.77;3.47;;;;;;;;;;5037147;28;20186;-67
2022/04/27 08:35:26;;;;;;;4.43;4.03;;;;;;;;;;5055052;28;20177;-66
2022/04/27 08:37:52;;;;;;;4.30;3.17;;;;;;;;;;5055295;28;20175;-66
2022/04/27 08:40:18;;;;;;;5.53;3.57;;;;;;;;;;5036793;28;20195;-66
2022/04/27 08:42:44;;;;;;;5.23;3.93;;;;;;;;;;5055126;28;20264;-67
2022/04/27 08:45:10;;;;;;;4.00;3.47;;;;;;;;;;5037263;28;20265;-68
2022/04/27 08:47:36;;;;;;;5.67;3.13;;;;;;;;;;5054902;28;20178;-66
2022/04/27 08:50:15;;;;;;;5.30;3.17;;;;;;;;;;5036645;28;20591;-66
2022/04/27 08:52:42;;;;;;;5.57;3.80;;;;;;;;;;5054647;28;20572;-67
2022/04/27 08:55:08;;;;;;;7.93;4.20;;;;;;;;;;5054694;28;20179;-66
2022/04/27 08:57:35;;;;;;;5.07;3.27;;;;;;;;;;5054737;28;20182;-66
2022/04/27 09:00:01;;;;;;;8.70;3.77;;;;;;;;;;5036962;28;20207;-66
2022/04/27 09:02:28;;;;;;;6.50;3.60;;;;;;;;;;5036381;28;20186;-66
2022/04/27 09:05:13;;;;;;;5.37;3.50;;;;;;;;;;5054135;28;20573;-66
2022/04/27 09:07:40;;;;;;;4.73;2.90;;;;;;;;;;5036302;28;20185;-66
2022/04/27 09:10:07;;;;;;;4.40;2.80;;;;;;;;;;5054510;28;20204;-66
2022/04/27 09:12:34;;;;;;;5.07;3.30;;;;;;;;;;5036252;28;20261;-66
2022/04/27 09:15:04;;;;;;;4.50;3.40;;;;;;;;;;5054088;28;20217;-66
2022/04/27 09:23:04;;;;;;;7.60;3.77;;;;;;;;;;5054473;28;20646;-65
2022/04/27 09:25:31;;;;;;;7.00;3.80;;;;;;;;;;5036142;28;20629;-65
2022/04/27 09:27:57;;;;;;;5.07;3.80;;;;;;;;;;5054018;28;20174;-66
2022/04/27 09:30:26;;;;;;;4.00;3.37;;;;;;;;;;5053787;28;20595;-66
2022/04/27 09:32:52;;;;;;;7.23;3.60;;;;;;;;;;5053977;28;20536;-66
2022/04/27 09:35:29;;;;;;;5.13;3.57;;;;;;;;;;5036013;28;20270;-63
2022/04/27 09:37:55;;;;;;;4.23;3.83;;;;;;;;;;5054377;28;20171;-64
2022/04/27 09:40:21;;;;;;;4.60;4.13;;;;;;;;;;5053888;28;20266;-65
2022/04/27 09:42:47;;;;;;;5.97;4.03;;;;;;;;;;5053499;28;20261;-65
2022/04/27 09:45:17;;;;;;;7.10;3.83;;;;;;;;;;5053713;28;20201;-65
2022/04/27 09:47:47;;;;;;;3.63;3.30;;;;;;;;;;5053633;28;20266;-65
2022/04/27 09:50:13;;;;;;;3.50;2.87;;;;;;;;;;5053483;28;20566;-65
2022/04/27 09:52:39;;;;;;;4.77;3.93;;;;;;;;;;5053468;28;20266;-65
2022/04/27 09:55:07;;;;;;;6.47;3.70;;;;;;;;;;5053826;28;20251;-66
2022/04/27 09:57:35;;;;;;;5.27;3.97;;;;;;;;;;5053726;28;20185;-65
2022/04/27 10:00:02;;;;;;;6.50;3.93;;;;;;;;;;5035861;28;20579;-65
2022/04/27 10:02:30;;;;;;;6.90;4.10;;;;;;;;;;5035800;28;20178;-65
2022/04/27 10:04:56;;;;;;;4.93;3.90;;;;;;;;;;5053313;28;20198;-65
2022/04/27 10:07:23;;;;;;;5.30;4.07;;;;;;;;;;5053617;28;20631;-65
2022/04/27 10:09:52;;;;;;;7.87;4.33;;;;;;;;;;5053437;28;20190;-69
2022/04/27 10:12:18;;;;;;;4.63;3.80;;;;;;;;;;5053270;28;20170;-65
2022/04/27 10:14:45;;;;;;;5.83;4.23;;;;;;;;;;5053369;28;20529;-66
2022/04/27 10:17:15;;;;;;;4.43;3.60;;;;;;;;;;5053782;28;20185;-65
2022/04/27 10:19:48;;;;;;;6.30;4.50;;;;;;;;;;5035485;28;20573;-65
2022/04/27 10:22:31;;;;;;;4.30;3.83;;;;;;;;;;5053194;28;20645;-65
2022/04/27 10:24:57;;;;;;;5.63;4.70;;;;;;;;;;5053075;28;20202;-65
2022/04/27 10:27:44;;;;;;;6.53;4.80;;;;;;;;;;5035261;28;20292;-66
2022/04/27 10:30:11;;;;;;;6.43;5.03;;;;;;;;;;5053140;28;20574;-65
2022/04/27 10:32:37;;;;;;;5.10;4.60;;;;;;;;;;5053379;28;20174;-65
2022/04/27 10:35:12;;;;;;;4.57;4.13;;;;;;;;;;5053029;28;20185;-67
2022/04/27 10:37:57;;;;;;;6.57;4.73;;;;;;;;;;5053077;28;20186;-65
2022/04/27 10:40:38;;;;;;;5.23;4.73;;;;;;;;;;5053061;28;20281;-65
2022/04/27 10:43:04;;;;;;;5.87;4.80;;;;;;;;;;5053171;28;20178;-65
2022/04/27 10:45:30;;;;;;;6.87;4.93;;;;;;;;;;5053046;28;20183;-66
2022/04/27 10:47:56;;;;;;;6.87;4.57;;;;;;;;;;5053397;28;20202;-64
2022/04/27 10:50:29;;;;;;;5.17;4.67;;;;;;;;;;5079754;22;20249;-67
2022/04/27 10:52:55;;;;;;;7.27;4.87;;;;;;;;;;5047681;28;20166;-66
2022/04/27 10:55:40;;;;;;;7.10;4.87;;;;;;;;;;5063372;28;20174;-67
2022/04/27 10:58:13;;;;;;;6.33;4.43;;;;;;;;;;5043380;28;20591;-67
2022/04/27 11:00:58;;;;;;;8.23;4.77;;;;;;;;;;5061627;28;20198;-66
2022/04/27 11:03:25;;;;;;;5.83;4.60;;;;;;;;;;5062517;28;20204;-67
2022/04/27 11:05:52;;;;;;;5.70;4.70;;;;;;;;;;5061141;28;20185;-66
2022/04/27 11:08:28;;;;;;;5.40;4.90;;;;;;;;;;5060533;28;20272;-66
2022/04/27 11:11:01;;;;;;;8.70;5.40;;;;;;;;;;5058936;28;20190;-66
2022/04/27 11:13:30;;;;;;;5.17;4.67;;;;;;;;;;5058345;28;20197;-65
2022/04/27 11:16:06;;;;;;;5.37;4.83;;;;;;;;;;5040315;28;20190;-66
2022/04/27 11:18:49;;;;;;;6.73;5.00;;;;;;;;;;5057489;28;20178;-66
2022/04/27 11:21:15;;;;;;;7.10;5.30;;;;;;;;;;5059028;28;20194;-65
2022/04/27 11:23:41;;;;;;;8.67;4.70;;;;;;;;;;5040211;28;20260;-66
2022/04/27 11:26:07;;;;;;;6.73;5.73;;;;;;;;;;5058644;28;20182;-66
2022/04/27 11:28:35;;;;;;;10.13;5.30;;;;;;;;;;5041305;28;20258;-66
2022/04/27 11:31:02;;;;;;;5.53;5.03;;;;;;;;;;5040805;28;20203;-65
2022/04/27 11:33:30;;;;;;;5.87;5.10;;;;;;;;;;5043875;28;20269;-64
2022/04/27 11:35:56;;;;;;;7.63;5.60;;;;;;;;;;5044175;28;20202;-64
2022/04/27 11:38:32;;;;;;;5.83;5.23;;;;;;;;;;5061307;28;20178;-65
2022/04/27 11:40:58;;;;;;;6.37;5.17;;;;;;;;;;5027125;28;20204;-65
2022/04/27 11:43:28;;;;;;;7.97;5.40;;;;;;;;;;5043911;28;20300;-65
2022/04/27 11:45:55;;;;;;;7.40;5.77;;;;;;;;;;5043826;28;20182;-64
2022/04/27 11:48:22;;;;;;;5.50;4.97;;;;;;;;;;5043735;28;20182;-65
2022/04/27 11:50:48;;;;;;;6.17;4.80;;;;;;;;;;5043366;28;20226;-65
2022/04/27 11:53:15;;;;;;;5.90;5.30;;;;;;;;;;5043198;28;20647;-65
2022/04/27 11:55:43;;;;;;;7.00;5.73;;;;;;;;;;5044035;28;20185;-65
2022/04/27 11:58:09;;;;;;;5.83;5.27;;;;;;;;;;5062540;28;20179;-65
2022/04/27 12:00:35;;;;;;;6.67;5.20;;;;;;;;;;5061809;28;20210;-64
2022/04/27 12:03:06;;;;;;;8.17;5.27;;;;;;;;;;5043224;28;20193;-65
2022/04/27 12:05:36;;;;;;;8.10;5.30;;;;;;;;;;5061313;28;20170;-64
2022/04/27 12:08:09;;;;;;;8.43;5.17;;;;;;;;;;5043021;28;20183;-66
2022/04/27 12:10:53;;;;;;;6.43;5.50;;;;;;;;;;5056498;28;20194;-65
2022/04/27 12:13:21;;;;;;;7.37;5.43;;;;;;;;;;5037990;28;20167;-64
2022/04/27 12:15:50;;;;;;;6.67;5.60;;;;;;;;;;5039348;28;20216;-65
2022/04/27 12:18:20;;;;;;;5.60;5.00;;;;;;;;;;5045988;28;20183;-65
2022/04/27 12:20:48;;;;;;;6.57;5.03;;;;;;;;;;5043823;28;20202;-65
2022/04/27 12:23:18;;;;;;;6.50;5.40;;;;;;;;;;5043826;28;20182;-65
2022/04/27 12:25:54;;;;;;;7.90;5.63;;;;;;;;;;5058557;28;20171;-65
2022/04/27 12:28:24;;;;;;;10.13;5.80;;;;;;;;;;5040369;28;20166;-65
2022/04/27 12:30:57;;;;;;;7.13;5.03;;;;;;;;;;5060332;28;20247;-65
2022/04/27 12:33:23;;;;;;;7.50;5.33;;;;;;;;;;5061235;28;20258;-65
2022/04/27 12:39:02;;;;;;;8.20;6.17;;;;;;;;;;5055310;28;20593;-65
2022/04/27 12:41:30;;;;;;;5.13;4.63;;;;;;;;;;5054654;28;20256;-65
2022/04/27 12:44:28;;;;;;;6.90;5.90;;;;;;;;;;5036412;28;20210;-65
2022/04/27 12:46:55;;;;;;;8.63;5.60;;;;;;;;;;5036362;28;20237;-65
2022/04/27 12:49:25;;;;;;;8.37;6.03;;;;;;;;;;5054902;28;20179;-65
2022/04/27 12:51:51;;;;;;;6.00;5.40;;;;;;;;;;5054797;28;20210;-65
2022/04/27 12:54:18;;;;;;;5.93;5.20;;;;;;;;;;5054840;28;20206;-65
2022/04/27 12:56:44;;;;;;;6.20;5.47;;;;;;;;;;5036497;28;20187;-65
2022/04/27 12:59:13;;;;;;;8.17;5.47;;;;;;;;;;5054635;28;20178;-65
2022/04/27 13:01:39;;;;;;;8.87;5.77;;;;;;;;;;5054403;28;20222;-65
2022/04/27 13:04:09;;;;;;;6.93;5.30;;;;;;;;;;5054134;28;20205;-65
2022/04/27 13:06:35;;;;;;;8.90;6.40;;;;;;;;;;5054508;28;20174;-65
2022/04/27 13:11:55;;;;;;;8.50;5.57;;;;;;;;;;5054486;28;20209;-66
2022/04/27 13:14:21;;;;;;;8.07;6.27;;;;;;;;;;5054886;28;20227;-65
2022/04/27 13:16:47;;;;;;;6.63;5.90;;;;;;;;;;5054205;28;20604;-65
2022/04/27 13:19:13;;;;;;;10.60;6.10;;;;;;;;;;5036140;28;20621;-65
2022/04/27 13:21:39;;;;;;;8.50;5.93;;;;;;;;;;5054318;28;20659;-65
2022/04/27 13:24:05;;;;;;;8.83;6.20;;;;;;;;;;5053860;28;20569;-65
2022/04/27 13:26:31;;;;;;;6.50;5.83;;;;;;;;;;5054422;28;20170;-65
2022/04/27 13:28:57;;;;;;;8.73;6.20;;;;;;;;;;5054198;28;20177;-65
2022/04/27 13:31:23;;;;;;;7.40;5.97;;;;;;;;;;5053959;28;20198;-65
2022/04/27 13:33:49;;;;;;;8.53;6.17;;;;;;;;;;5054163;28;20184;-65
2022/04/27 13:36:15;;;;;;;7.87;6.27;;;;;;;;;;5054075;28;20182;-65
2022/04/27 13:38:41;;;;;;;8.40;6.97;;;;;;;;;;5053643;28;20184;-64
2022/04/27 13:41:06;;;;;;;9.07;6.37;;;;;;;;;;5053559;28;20230;-65
2022/04/27 13:43:32;;;;;;;6.87;6.17;;;;;;;;;;5053716;28;20202;-65
2022/04/27 13:45:58;;;;;;;6.77;5.73;;;;;;;;;;5054035;28;20178;-65
2022/04/27 13:48:24;;;;;;;6.40;5.43;;;;;;;;;;5053552;28;20249;-65
2022/04/27 13:50:50;;;;;;;6.33;5.23;;;;;;;;;;5053429;28;20234;-65
2022/04/27 13:53:18;;;;;;;7.53;6.13;;;;;;;;;;5053428;28;20171;-66
2022/04/27 13:55:45;;;;;;;7.10;5.90;;;;;;;;;;5052949;28;20163;-66
2022/04/27 13:58:10;;;;;;;5.50;5.00;;;;;;;;;;5054480;28;20029;-66
2022/04/27 14:00:36;;;;;;;7.67;6.33;;;;;;;;;;5036862;28;20201;-65
2022/04/27 14:03:02;;;;;;;6.37;5.77;;;;;;;;;;5054603;28;20231;-66
2022/04/27 14:05:28;;;;;;;7.97;5.77;;;;;;;;;;5053396;28;20186;-65
2022/04/27 14:07:54;;;;;;;8.17;5.63;;;;;;;;;;5053423;28;20261;-65
2022/04/27 14:10:20;;;;;;;6.47;5.03;;;;;;;;;;5053322;28;20205;-63
2022/04/27 14:15:32;;;;;;;9.47;6.20;;;;;;;;;;5053799;28;20177;-64
2022/04/27 14:18:10;;;;;;;6.40;5.80;;;;;;;;;;5053298;28;20174;-66
2022/04/27 14:20:40;;;;;;;7.50;5.73;;;;;;;;;;5035099;28;20291;-64
2022/04/27 14:23:07;;;;;;;8.17;5.90;;;;;;;;;;5053473;28;20257;-64
2022/04/27 14:25:33;;;;;;;6.93;5.60;;;;;;;;;;5053022;28;20258;-65
2022/04/27 14:27:59;;;;;;;6.63;5.83;;;;;;;;;;5053076;28;20178;-65
2022/04/27 14:30:25;;;;;;;8.40;6.40;;;;;;;;;;5053126;28;20282;-65
2022/04/27 14:32:51;;;;;;;7.83;5.50;;;;;;;;;;5053226;28;20281;-65
2022/04/27 14:35:17;;;;;;;7.53;6.03;;;;;;;;;;5053059;28;20181;-65
2022/04/27 14:37:44;;;;;;;7.03;6.00;;;;;;;;;;5053111;28;20205;-65
2022/04/27 14:40:10;;;;;;;7.23;6.13;;;;;;;;;;5035040;28;20207;-66
2022/04/27 14:42:36;;;;;;;6.47;5.33;;;;;;;;;;5035093;28;20179;-65
2022/04/27 14:45:03;;;;;;;8.03;5.80;;;;;;;;;;5052963;28;20259;-63
2022/04/27 14:47:29;;;;;;;6.07;5.07;;;;;;;;;;5052932;28;20210;-64
2022/04/27 14:49:56;;;;;;;7.77;6.23;;;;;;;;;;5052808;28;20211;-63
2022/04/27 14:52:22;;;;;;;6.40;5.20;;;;;;;;;;5052792;28;20260;-63
2022/04/27 14:54:48;;;;;;;6.70;5.77;;;;;;;;;;5052968;28;20170;-63
2022/04/27 14:57:14;;;;;;;7.10;5.97;;;;;;;;;;5052882;28;20202;-65
2022/04/27 14:59:41;;;;;;;6.90;6.20;;;;;;;;;;5034891;28;20685;-63
2022/04/27 15:02:07;;;;;;;8.43;6.33;;;;;;;;;;5052688;28;20193;-65
2022/04/27 15:04:34;;;;;;;7.63;5.87;;;;;;;;;;5052602;28;20238;-62
2022/04/27 15:07:00;;;;;;;7.87;5.60;;;;;;;;;;5055891;28;20681;-64
2022/04/27 15:09:26;;;;;;;9.77;6.17;;;;;;;;;;5056713;28;20182;-64
2022/04/27 15:11:52;;;;;;;9.90;6.03;;;;;;;;;;5056474;28;20229;-64